sensor_id;sensor_type;location;lat;lon;timestamp;P1;durP1;ratioP1;P2;durP2;ratioP2
351;SDS011;164;50.784;6.496;2023-02-15T00:02:01;23.73;;;21.98;;
351;SDS011;164;50.784;6.496;2023-02-15T00:04:29;26.23;;;23.27;;
351;SDS011;164;50.784;6.496;2023-02-15T00:07:10;23.45;;;22.25;;
351;SDS011;164;50.784;6.496;2023-02-15T00:09:37;25.88;;;23.48;;
351;SDS011;164;50.784;6.496;2023-02-15T00:12:05;27.95;;;23.67;;
351;SDS011;164;50.784;6.496;2023-02-15T00:14:32;24.33;;;23.13;;
351;SDS011;164;50.784;6.496;2023-02-15T00:17:00;24.88;;;22.38;;
351;SDS011;164;50.784;6.496;2023-02-15T00:19:28;24.67;;;23.45;;
351;SDS011;164;50.784;6.496;2023-02-15T00:21:55;25.35;;;24.05;;
351;SDS011;164;50.784;6.496;2023-02-15T00:24:22;25.75;;;24.15;;
351;SDS011;164;50.784;6.496;2023-02-15T00:26:50;26.45;;;23.00;;
351;SDS011;164;50.784;6.496;2023-02-15T00:29:17;27.80;;;23.77;;
351;SDS011;164;50.784;6.496;2023-02-15T00:31:44;28.08;;;22.50;;
351;SDS011;164;50.784;6.496;2023-02-15T00:34:14;26.63;;;24.33;;
351;SDS011;164;50.784;6.496;2023-02-15T00:36:41;23.60;;;22.40;;
351;SDS011;164;50.784;6.496;2023-02-15T00:39:10;24.75;;;22.27;;
351;SDS011;164;50.784;6.496;2023-02-15T00:41:37;25.83;;;22.70;;
351;SDS011;164;50.784;6.496;2023-02-15T00:44:04;25.67;;;23.65;;
351;SDS011;164;50.784;6.496;2023-02-15T00:46:32;29.27;;;22.63;;
351;SDS011;164;50.784;6.496;2023-02-15T00:48:59;28.50;;;23.33;;
351;SDS011;164;50.784;6.496;2023-02-15T00:51:28;25.75;;;22.42;;
351;SDS011;164;50.784;6.496;2023-02-15T00:53:55;26.80;;;24.55;;
351;SDS011;164;50.784;6.496;2023-02-15T00:56:22;25.65;;;23.40;;
351;SDS011;164;50.784;6.496;2023-02-15T00:58:50;26.23;;;23.70;;
351;SDS011;164;50.784;6.496;2023-02-15T01:01:18;30.85;;;25.80;;
351;SDS011;164;50.784;6.496;2023-02-15T01:03:45;24.48;;;22.58;;
351;SDS011;164;50.784;6.496;2023-02-15T01:06:13;27.73;;;23.02;;
351;SDS011;164;50.784;6.496;2023-02-15T01:08:41;28.75;;;23.38;;
351;SDS011;164;50.784;6.496;2023-02-15T01:11:10;26.77;;;24.08;;
351;SDS011;164;50.784;6.496;2023-02-15T01:13:38;26.83;;;23.13;;
351;SDS011;164;50.784;6.496;2023-02-15T01:16:05;27.02;;;22.65;;
351;SDS011;164;50.784;6.496;2023-02-15T01:18:33;28.35;;;24.40;;
351;SDS011;164;50.784;6.496;2023-02-15T01:21:08;31.05;;;23.98;;
351;SDS011;164;50.784;6.496;2023-02-15T01:23:35;24.73;;;23.15;;
351;SDS011;164;50.784;6.496;2023-02-15T01:26:03;30.58;;;22.65;;
351;SDS011;164;50.784;6.496;2023-02-15T01:28:31;29.60;;;24.20;;
351;SDS011;164;50.784;6.496;2023-02-15T01:30:58;30.30;;;24.27;;
351;SDS011;164;50.784;6.496;2023-02-15T01:33:25;25.85;;;21.90;;
351;SDS011;164;50.784;6.496;2023-02-15T01:35:55;24.17;;;21.77;;
351;SDS011;164;50.784;6.496;2023-02-15T01:38:23;27.38;;;23.25;;
351;SDS011;164;50.784;6.496;2023-02-15T01:40:51;29.75;;;23.92;;
351;SDS011;164;50.784;6.496;2023-02-15T01:43:19;26.52;;;24.92;;
351;SDS011;164;50.784;6.496;2023-02-15T01:45:47;27.05;;;25.08;;
351;SDS011;164;50.784;6.496;2023-02-15T01:48:17;26.55;;;23.70;;
351;SDS011;164;50.784;6.496;2023-02-15T01:50:47;29.77;;;24.77;;
351;SDS011;164;50.784;6.496;2023-02-15T01:53:18;30.42;;;24.63;;
351;SDS011;164;50.784;6.496;2023-02-15T01:55:48;28.30;;;22.45;;
351;SDS011;164;50.784;6.496;2023-02-15T01:58:16;27.73;;;24.13;;
351;SDS011;164;50.784;6.496;2023-02-15T02:00:45;28.98;;;24.30;;
351;SDS011;164;50.784;6.496;2023-02-15T02:03:12;24.40;;;22.23;;
351;SDS011;164;50.784;6.496;2023-02-15T02:05:39;26.05;;;23.45;;
351;SDS011;164;50.784;6.496;2023-02-15T02:08:07;31.90;;;26.50;;
351;SDS011;164;50.784;6.496;2023-02-15T02:10:35;28.38;;;23.35;;
351;SDS011;164;50.784;6.496;2023-02-15T02:13:03;23.98;;;22.55;;
351;SDS011;164;50.784;6.496;2023-02-15T02:15:34;24.90;;;21.92;;
351;SDS011;164;50.784;6.496;2023-02-15T02:18:11;31.63;;;26.17;;
351;SDS011;164;50.784;6.496;2023-02-15T02:23:38;23.75;;;22.52;;
351;SDS011;164;50.784;6.496;2023-02-15T02:26:16;27.13;;;22.85;;
351;SDS011;164;50.784;6.496;2023-02-15T02:29:01;24.70;;;21.23;;
351;SDS011;164;50.784;6.496;2023-02-15T02:31:39;25.77;;;22.48;;
351;SDS011;164;50.784;6.496;2023-02-15T02:34:12;27.50;;;23.77;;
351;SDS011;164;50.784;6.496;2023-02-15T02:36:44;24.52;;;20.83;;
351;SDS011;164;50.784;6.496;2023-02-15T02:39:17;25.73;;;23.17;;
351;SDS011;164;50.784;6.496;2023-02-15T02:41:50;29.05;;;24.25;;
351;SDS011;164;50.784;6.496;2023-02-15T02:44:21;26.65;;;25.35;;
351;SDS011;164;50.784;6.496;2023-02-15T02:46:50;25.33;;;22.92;;
351;SDS011;164;50.784;6.496;2023-02-15T02:49:29;27.77;;;23.75;;
351;SDS011;164;50.784;6.496;2023-02-15T02:51:57;29.48;;;24.55;;
351;SDS011;164;50.784;6.496;2023-02-15T02:54:25;27.15;;;23.05;;
351;SDS011;164;50.784;6.496;2023-02-15T02:56:52;26.17;;;23.58;;
351;SDS011;164;50.784;6.496;2023-02-15T02:59:20;26.75;;;21.50;;
351;SDS011;164;50.784;6.496;2023-02-15T03:01:51;27.05;;;24.88;;
351;SDS011;164;50.784;6.496;2023-02-15T03:04:21;24.77;;;23.58;;
351;SDS011;164;50.784;6.496;2023-02-15T03:06:52;27.88;;;23.55;;
351;SDS011;164;50.784;6.496;2023-02-15T03:09:22;28.67;;;23.95;;
351;SDS011;164;50.784;6.496;2023-02-15T03:11:59;32.05;;;23.65;;
351;SDS011;164;50.784;6.496;2023-02-15T03:14:28;26.70;;;23.40;;
351;SDS011;164;50.784;6.496;2023-02-15T03:16:55;25.60;;;21.38;;
351;SDS011;164;50.784;6.496;2023-02-15T03:19:23;26.85;;;21.75;;
351;SDS011;164;50.784;6.496;2023-02-15T03:21:54;27.15;;;23.58;;
351;SDS011;164;50.784;6.496;2023-02-15T03:24:30;25.08;;;23.05;;
351;SDS011;164;50.784;6.496;2023-02-15T03:26:59;26.50;;;24.17;;
351;SDS011;164;50.784;6.496;2023-02-15T03:29:26;27.88;;;24.90;;
351;SDS011;164;50.784;6.496;2023-02-15T03:31:55;25.27;;;23.90;;
351;SDS011;164;50.784;6.496;2023-02-15T03:34:23;28.08;;;22.08;;
351;SDS011;164;50.784;6.496;2023-02-15T03:36:52;26.08;;;24.27;;
351;SDS011;164;50.784;6.496;2023-02-15T03:47:20;30.10;;;25.50;;
351;SDS011;164;50.784;6.496;2023-02-15T03:49:52;29.25;;;24.65;;
351;SDS011;164;50.784;6.496;2023-02-15T03:52:20;29.27;;;25.02;;
351;SDS011;164;50.784;6.496;2023-02-15T03:54:48;31.25;;;25.77;;
351;SDS011;164;50.784;6.496;2023-02-15T03:57:18;29.27;;;26.10;;
351;SDS011;164;50.784;6.496;2023-02-15T04:00:04;31.95;;;25.92;;
351;SDS011;164;50.784;6.496;2023-02-15T04:03:03;25.80;;;23.65;;
351;SDS011;164;50.784;6.496;2023-02-15T04:05:33;30.05;;;22.35;;
351;SDS011;164;50.784;6.496;2023-02-15T04:08:01;31.95;;;24.48;;
351;SDS011;164;50.784;6.496;2023-02-15T04:10:28;24.88;;;23.42;;
351;SDS011;164;50.784;6.496;2023-02-15T04:13:13;24.52;;;23.15;;
351;SDS011;164;50.784;6.496;2023-02-15T04:15:40;28.33;;;23.77;;
351;SDS011;164;50.784;6.496;2023-02-15T04:18:26;27.73;;;24.15;;
351;SDS011;164;50.784;6.496;2023-02-15T04:21:11;26.95;;;23.48;;
351;SDS011;164;50.784;6.496;2023-02-15T04:23:56;24.40;;;20.83;;
351;SDS011;164;50.784;6.496;2023-02-15T04:26:41;27.10;;;23.42;;
351;SDS011;164;50.784;6.496;2023-02-15T04:29:08;25.23;;;23.58;;
351;SDS011;164;50.784;6.496;2023-02-15T04:31:35;28.13;;;23.33;;
351;SDS011;164;50.784;6.496;2023-02-15T04:39:43;26.50;;;23.50;;
351;SDS011;164;50.784;6.496;2023-02-15T04:42:10;26.90;;;23.55;;
351;SDS011;164;50.784;6.496;2023-02-15T04:44:37;26.65;;;22.60;;
351;SDS011;164;50.784;6.496;2023-02-15T04:47:04;28.35;;;23.85;;
351;SDS011;164;50.784;6.496;2023-02-15T04:49:32;27.98;;;23.02;;
351;SDS011;164;50.784;6.496;2023-02-15T04:51:59;27.92;;;24.13;;
351;SDS011;164;50.784;6.496;2023-02-15T04:54:26;28.60;;;23.50;;
351;SDS011;164;50.784;6.496;2023-02-15T04:56:55;27.17;;;24.25;;
351;SDS011;164;50.784;6.496;2023-02-15T04:59:22;25.98;;;22.73;;
351;SDS011;164;50.784;6.496;2023-02-15T05:01:49;27.17;;;22.75;;
351;SDS011;164;50.784;6.496;2023-02-15T05:04:17;27.75;;;24.23;;
351;SDS011;164;50.784;6.496;2023-02-15T05:06:44;26.15;;;22.63;;
351;SDS011;164;50.784;6.496;2023-02-15T05:09:11;28.25;;;23.80;;
351;SDS011;164;50.784;6.496;2023-02-15T05:11:39;28.00;;;25.88;;
351;SDS011;164;50.784;6.496;2023-02-15T05:14:07;28.45;;;25.30;;
351;SDS011;164;50.784;6.496;2023-02-15T05:16:36;28.92;;;24.60;;
351;SDS011;164;50.784;6.496;2023-02-15T05:19:03;31.75;;;24.42;;
351;SDS011;164;50.784;6.496;2023-02-15T05:21:31;28.20;;;23.77;;
351;SDS011;164;50.784;6.496;2023-02-15T05:23:58;33.38;;;23.42;;
351;SDS011;164;50.784;6.496;2023-02-15T05:26:25;29.83;;;23.80;;
351;SDS011;164;50.784;6.496;2023-02-15T05:29:11;27.88;;;24.52;;
351;SDS011;164;50.784;6.496;2023-02-15T05:31:39;23.33;;;21.98;;
351;SDS011;164;50.784;6.496;2023-02-15T05:34:06;24.88;;;22.92;;
351;SDS011;164;50.784;6.496;2023-02-15T05:36:34;20.00;;;17.30;;
351;SDS011;164;50.784;6.496;2023-02-15T05:39:01;24.98;;;21.73;;
351;SDS011;164;50.784;6.496;2023-02-15T05:41:29;25.52;;;23.52;;
351;SDS011;164;50.784;6.496;2023-02-15T05:43:56;26.33;;;22.65;;
351;SDS011;164;50.784;6.496;2023-02-15T05:46:26;23.73;;;20.67;;
351;SDS011;164;50.784;6.496;2023-02-15T05:48:53;22.13;;;21.02;;
351;SDS011;164;50.784;6.496;2023-02-15T05:51:21;26.40;;;22.77;;
351;SDS011;164;50.784;6.496;2023-02-15T05:53:48;26.63;;;22.35;;
351;SDS011;164;50.784;6.496;2023-02-15T05:56:15;22.52;;;21.02;;
351;SDS011;164;50.784;6.496;2023-02-15T05:58:43;28.13;;;22.80;;
351;SDS011;164;50.784;6.496;2023-02-15T06:01:10;28.85;;;22.05;;
351;SDS011;164;50.784;6.496;2023-02-15T06:03:39;27.55;;;24.85;;
351;SDS011;164;50.784;6.496;2023-02-15T06:06:07;26.27;;;22.58;;
351;SDS011;164;50.784;6.496;2023-02-15T06:08:34;28.50;;;24.38;;
351;SDS011;164;50.784;6.496;2023-02-15T06:11:02;23.10;;;21.92;;
351;SDS011;164;50.784;6.496;2023-02-15T06:13:29;24.08;;;21.63;;
351;SDS011;164;50.784;6.496;2023-02-15T06:15:57;25.92;;;22.50;;
351;SDS011;164;50.784;6.496;2023-02-15T06:18:24;25.83;;;23.30;;
351;SDS011;164;50.784;6.496;2023-02-15T06:20:53;23.40;;;21.10;;
351;SDS011;164;50.784;6.496;2023-02-15T06:23:20;24.67;;;22.73;;
351;SDS011;164;50.784;6.496;2023-02-15T06:25:47;27.08;;;23.20;;
351;SDS011;164;50.784;6.496;2023-02-15T06:28:17;26.88;;;23.27;;
351;SDS011;164;50.784;6.496;2023-02-15T06:30:44;31.90;;;23.95;;
351;SDS011;164;50.784;6.496;2023-02-15T06:33:11;24.48;;;23.25;;
351;SDS011;164;50.784;6.496;2023-02-15T06:35:38;24.13;;;22.85;;
351;SDS011;164;50.784;6.496;2023-02-15T06:38:07;23.58;;;22.30;;
351;SDS011;164;50.784;6.496;2023-02-15T06:40:34;25.92;;;20.80;;
351;SDS011;164;50.784;6.496;2023-02-15T06:43:02;23.52;;;19.33;;
351;SDS011;164;50.784;6.496;2023-02-15T06:45:29;25.45;;;24.15;;
351;SDS011;164;50.784;6.496;2023-02-15T06:47:56;25.15;;;21.55;;
351;SDS011;164;50.784;6.496;2023-02-15T06:50:23;26.60;;;21.67;;
351;SDS011;164;50.784;6.496;2023-02-15T06:52:54;26.10;;;22.35;;
351;SDS011;164;50.784;6.496;2023-02-15T06:55:23;23.70;;;22.45;;
351;SDS011;164;50.784;6.496;2023-02-15T06:57:50;26.92;;;22.05;;
351;SDS011;164;50.784;6.496;2023-02-15T07:00:18;23.27;;;21.85;;
351;SDS011;164;50.784;6.496;2023-02-15T07:02:47;25.77;;;22.17;;
351;SDS011;164;50.784;6.496;2023-02-15T07:05:14;24.42;;;21.95;;
351;SDS011;164;50.784;6.496;2023-02-15T07:07:41;26.60;;;23.58;;
351;SDS011;164;50.784;6.496;2023-02-15T07:10:09;23.13;;;20.00;;
351;SDS011;164;50.784;6.496;2023-02-15T07:12:37;26.33;;;20.77;;
351;SDS011;164;50.784;6.496;2023-02-15T07:15:07;24.63;;;21.40;;
351;SDS011;164;50.784;6.496;2023-02-15T07:17:35;23.38;;;21.52;;
351;SDS011;164;50.784;6.496;2023-02-15T07:20:03;24.85;;;22.35;;
351;SDS011;164;50.784;6.496;2023-02-15T07:22:30;23.52;;;20.38;;
351;SDS011;164;50.784;6.496;2023-02-15T07:24:59;24.08;;;21.75;;
351;SDS011;164;50.784;6.496;2023-02-15T07:27:26;25.75;;;20.05;;
351;SDS011;164;50.784;6.496;2023-02-15T07:29:55;23.25;;;19.90;;
351;SDS011;164;50.784;6.496;2023-02-15T07:32:22;27.52;;;20.73;;
351;SDS011;164;50.784;6.496;2023-02-15T07:34:49;24.90;;;22.15;;
351;SDS011;164;50.784;6.496;2023-02-15T07:37:16;23.30;;;19.75;;
351;SDS011;164;50.784;6.496;2023-02-15T07:39:44;24.35;;;21.02;;
351;SDS011;164;50.784;6.496;2023-02-15T07:42:11;24.90;;;22.73;;
351;SDS011;164;50.784;6.496;2023-02-15T07:44:38;26.73;;;23.58;;
351;SDS011;164;50.784;6.496;2023-02-15T07:47:07;25.15;;;22.45;;
351;SDS011;164;50.784;6.496;2023-02-15T07:49:34;23.00;;;20.80;;
351;SDS011;164;50.784;6.496;2023-02-15T07:52:01;24.65;;;19.80;;
351;SDS011;164;50.784;6.496;2023-02-15T07:54:29;25.02;;;21.25;;
351;SDS011;164;50.784;6.496;2023-02-15T07:56:56;24.88;;;20.52;;
351;SDS011;164;50.784;6.496;2023-02-15T07:59:23;23.90;;;21.60;;
351;SDS011;164;50.784;6.496;2023-02-15T08:01:50;21.83;;;19.73;;
351;SDS011;164;50.784;6.496;2023-02-15T08:04:20;22.20;;;20.27;;
351;SDS011;164;50.784;6.496;2023-02-15T08:06:47;22.17;;;19.45;;
351;SDS011;164;50.784;6.496;2023-02-15T08:09:18;25.70;;;23.60;;
351;SDS011;164;50.784;6.496;2023-02-15T08:11:46;23.50;;;21.33;;
351;SDS011;164;50.784;6.496;2023-02-15T08:14:14;24.17;;;22.98;;
351;SDS011;164;50.784;6.496;2023-02-15T08:16:42;22.92;;;21.85;;
351;SDS011;164;50.784;6.496;2023-02-15T08:19:10;22.38;;;20.83;;
351;SDS011;164;50.784;6.496;2023-02-15T08:21:40;23.30;;;21.00;;
351;SDS011;164;50.784;6.496;2023-02-15T08:24:07;24.88;;;20.63;;
351;SDS011;164;50.784;6.496;2023-02-15T08:26:36;21.13;;;20.05;;
351;SDS011;164;50.784;6.496;2023-02-15T08:29:04;20.17;;;18.83;;
351;SDS011;164;50.784;6.496;2023-02-15T08:31:32;24.95;;;20.60;;
351;SDS011;164;50.784;6.496;2023-02-15T08:33:59;27.15;;;21.17;;
351;SDS011;164;50.784;6.496;2023-02-15T08:36:27;23.88;;;21.15;;
351;SDS011;164;50.784;6.496;2023-02-15T08:38:58;23.33;;;22.05;;
351;SDS011;164;50.784;6.496;2023-02-15T08:46:38;25.70;;;22.88;;
351;SDS011;164;50.784;6.496;2023-02-15T08:49:07;23.67;;;22.13;;
351;SDS011;164;50.784;6.496;2023-02-15T08:51:44;27.27;;;24.73;;
351;SDS011;164;50.784;6.496;2023-02-15T08:54:26;24.25;;;22.00;;
351;SDS011;164;50.784;6.496;2023-02-15T08:56:55;22.98;;;21.83;;
351;SDS011;164;50.784;6.496;2023-02-15T08:59:23;24.70;;;23.27;;
351;SDS011;164;50.784;6.496;2023-02-15T09:01:52;24.80;;;23.60;;
351;SDS011;164;50.784;6.496;2023-02-15T09:04:25;38.45;;;32.92;;
351;SDS011;164;50.784;6.496;2023-02-15T09:06:59;31.65;;;30.08;;
351;SDS011;164;50.784;6.496;2023-02-15T09:10:06;26.95;;;24.45;;
351;SDS011;164;50.784;6.496;2023-02-15T09:12:37;27.70;;;26.00;;
351;SDS011;164;50.784;6.496;2023-02-15T09:15:09;26.77;;;24.02;;
351;SDS011;164;50.784;6.496;2023-02-15T09:17:49;29.00;;;25.55;;
351;SDS011;164;50.784;6.496;2023-02-15T09:20:17;26.48;;;25.10;;
351;SDS011;164;50.784;6.496;2023-02-15T09:22:53;28.23;;;23.75;;
351;SDS011;164;50.784;6.496;2023-02-15T09:25:26;23.73;;;22.52;;
351;SDS011;164;50.784;6.496;2023-02-15T09:27:56;23.45;;;22.27;;
351;SDS011;164;50.784;6.496;2023-02-15T09:30:27;21.60;;;20.13;;
351;SDS011;164;50.784;6.496;2023-02-15T09:33:10;20.40;;;19.40;;
351;SDS011;164;50.784;6.496;2023-02-15T09:35:39;21.65;;;20.55;;
351;SDS011;164;50.784;6.496;2023-02-15T09:38:08;22.70;;;21.08;;
351;SDS011;164;50.784;6.496;2023-02-15T09:40:49;20.85;;;19.85;;
351;SDS011;164;50.784;6.496;2023-02-15T09:43:30;21.52;;;20.42;;
351;SDS011;164;50.784;6.496;2023-02-15T09:46:17;22.00;;;20.90;;
351;SDS011;164;50.784;6.496;2023-02-15T09:48:49;21.63;;;20.52;;
351;SDS011;164;50.784;6.496;2023-02-15T09:51:28;24.20;;;20.75;;
351;SDS011;164;50.784;6.496;2023-02-15T09:54:03;19.85;;;18.83;;
351;SDS011;164;50.784;6.496;2023-02-15T09:56:53;21.23;;;19.25;;
351;SDS011;164;50.784;6.496;2023-02-15T09:59:27;21.42;;;20.33;;
351;SDS011;164;50.784;6.496;2023-02-15T10:02:11;20.42;;;19.00;;
351;SDS011;164;50.784;6.496;2023-02-15T10:04:47;22.30;;;19.67;;
351;SDS011;164;50.784;6.496;2023-02-15T10:07:23;20.83;;;19.77;;
351;SDS011;164;50.784;6.496;2023-02-15T10:12:55;21.10;;;20.00;;
351;SDS011;164;50.784;6.496;2023-02-15T10:15:36;20.85;;;19.77;;
351;SDS011;164;50.784;6.496;2023-02-15T10:18:11;24.65;;;20.17;;
351;SDS011;164;50.784;6.496;2023-02-15T10:20:46;22.15;;;19.45;;
351;SDS011;164;50.784;6.496;2023-02-15T10:23:35;19.60;;;18.38;;
351;SDS011;164;50.784;6.496;2023-02-15T10:26:05;22.42;;;20.33;;
351;SDS011;164;50.784;6.496;2023-02-15T10:28:41;22.35;;;19.98;;
351;SDS011;164;50.784;6.496;2023-02-15T10:31:11;29.85;;;27.27;;
351;SDS011;164;50.784;6.496;2023-02-15T10:33:39;24.50;;;22.83;;
351;SDS011;164;50.784;6.496;2023-02-15T10:36:15;20.92;;;19.95;;
351;SDS011;164;50.784;6.496;2023-02-15T10:38:56;18.13;;;17.05;;
351;SDS011;164;50.784;6.496;2023-02-15T10:41:29;20.38;;;18.15;;
351;SDS011;164;50.784;6.496;2023-02-15T10:44:08;17.55;;;16.65;;
351;SDS011;164;50.784;6.496;2023-02-15T10:46:55;19.20;;;18.13;;
351;SDS011;164;50.784;6.496;2023-02-15T10:52:14;18.75;;;16.30;;
351;SDS011;164;50.784;6.496;2023-02-15T10:54:44;21.85;;;18.33;;
351;SDS011;164;50.784;6.496;2023-02-15T10:57:18;18.70;;;16.42;;
351;SDS011;164;50.784;6.496;2023-02-15T11:02:51;17.52;;;16.45;;
351;SDS011;164;50.784;6.496;2023-02-15T11:05:28;17.13;;;16.08;;
351;SDS011;164;50.784;6.496;2023-02-15T11:08:08;19.75;;;17.25;;
351;SDS011;164;50.784;6.496;2023-02-15T11:10:39;20.23;;;17.75;;
351;SDS011;164;50.784;6.496;2023-02-15T11:13:09;16.30;;;15.50;;
351;SDS011;164;50.784;6.496;2023-02-15T11:15:44;17.15;;;15.48;;
351;SDS011;164;50.784;6.496;2023-02-15T11:18:32;17.35;;;15.75;;
351;SDS011;164;50.784;6.496;2023-02-15T11:21:05;16.27;;;15.02;;
351;SDS011;164;50.784;6.496;2023-02-15T11:23:47;19.52;;;15.95;;
351;SDS011;164;50.784;6.496;2023-02-15T11:26:41;16.25;;;14.68;;
351;SDS011;164;50.784;6.496;2023-02-15T11:29:12;18.20;;;17.05;;
351;SDS011;164;50.784;6.496;2023-02-15T11:31:44;26.20;;;22.15;;
351;SDS011;164;50.784;6.496;2023-02-15T11:34:17;18.90;;;17.95;;
351;SDS011;164;50.784;6.496;2023-02-15T11:36:49;18.80;;;15.88;;
351;SDS011;164;50.784;6.496;2023-02-15T11:39:33;14.63;;;13.32;;
351;SDS011;164;50.784;6.496;2023-02-15T11:42:04;16.48;;;14.95;;
351;SDS011;164;50.784;6.496;2023-02-15T11:44:51;18.45;;;15.30;;
351;SDS011;164;50.784;6.496;2023-02-15T11:47:22;15.27;;;14.52;;
351;SDS011;164;50.784;6.496;2023-02-15T11:49:55;17.25;;;14.98;;
351;SDS011;164;50.784;6.496;2023-02-15T11:52:26;15.18;;;14.40;;
351;SDS011;164;50.784;6.496;2023-02-15T11:54:54;15.48;;;14.70;;
351;SDS011;164;50.784;6.496;2023-02-15T11:57:25;14.25;;;13.57;;
351;SDS011;164;50.784;6.496;2023-02-15T11:59:58;17.08;;;15.73;;
351;SDS011;164;50.784;6.496;2023-02-15T12:02:39;17.00;;;14.38;;
351;SDS011;164;50.784;6.496;2023-02-15T12:05:15;16.05;;;14.48;;
351;SDS011;164;50.784;6.496;2023-02-15T12:07:46;14.35;;;13.50;;
351;SDS011;164;50.784;6.496;2023-02-15T12:10:17;15.75;;;14.85;;
351;SDS011;164;50.784;6.496;2023-02-15T12:12:50;13.68;;;12.98;;
351;SDS011;164;50.784;6.496;2023-02-15T12:15:44;16.08;;;13.07;;
351;SDS011;164;50.784;6.496;2023-02-15T12:18:21;13.30;;;12.70;;
351;SDS011;164;50.784;6.496;2023-02-15T12:20:55;13.85;;;13.15;;
351;SDS011;164;50.784;6.496;2023-02-15T12:23:32;15.50;;;13.70;;
351;SDS011;164;50.784;6.496;2023-02-15T12:26:05;14.38;;;13.68;;
351;SDS011;164;50.784;6.496;2023-02-15T12:28:33;15.02;;;14.23;;
351;SDS011;164;50.784;6.496;2023-02-15T12:31:19;17.10;;;14.10;;
351;SDS011;164;50.784;6.496;2023-02-15T12:33:52;14.52;;;13.85;;
351;SDS011;164;50.784;6.496;2023-02-15T12:36:24;15.73;;;14.85;;
351;SDS011;164;50.784;6.496;2023-02-15T12:39:04;16.30;;;13.55;;
351;SDS011;164;50.784;6.496;2023-02-15T12:46:56;33.60;;;27.35;;
351;SDS011;164;50.784;6.496;2023-02-15T12:49:26;26.77;;;24.23;;
351;SDS011;164;50.784;6.496;2023-02-15T12:51:57;18.35;;;17.42;;
351;SDS011;164;50.784;6.496;2023-02-15T12:54:30;16.35;;;15.57;;
351;SDS011;164;50.784;6.496;2023-02-15T12:59:51;16.17;;;15.18;;
351;SDS011;164;50.784;6.496;2023-02-15T13:02:27;16.77;;;14.30;;
351;SDS011;164;50.784;6.496;2023-02-15T13:05:04;17.98;;;15.50;;
351;SDS011;164;50.784;6.496;2023-02-15T13:07:35;16.20;;;14.45;;
351;SDS011;164;50.784;6.496;2023-02-15T13:10:17;17.67;;;14.80;;
351;SDS011;164;50.784;6.496;2023-02-15T13:13:01;15.63;;;13.80;;
351;SDS011;164;50.784;6.496;2023-02-15T13:15:44;14.40;;;13.70;;
351;SDS011;164;50.784;6.496;2023-02-15T13:18:29;15.43;;;14.63;;
351;SDS011;164;50.784;6.496;2023-02-15T13:20:58;16.70;;;15.70;;
351;SDS011;164;50.784;6.496;2023-02-15T13:23:29;14.88;;;13.65;;
351;SDS011;164;50.784;6.496;2023-02-15T13:25:58;15.07;;;14.27;;
351;SDS011;164;50.784;6.496;2023-02-15T13:28:28;14.55;;;13.85;;
351;SDS011;164;50.784;6.496;2023-02-15T13:30:58;15.52;;;14.32;;
351;SDS011;164;50.784;6.496;2023-02-15T13:33:30;15.13;;;14.30;;
351;SDS011;164;50.784;6.496;2023-02-15T13:36:04;15.85;;;14.90;;
351;SDS011;164;50.784;6.496;2023-02-15T13:41:25;12.85;;;12.15;;
351;SDS011;164;50.784;6.496;2023-02-15T13:43:58;14.57;;;13.07;;
351;SDS011;164;50.784;6.496;2023-02-15T13:46:34;15.73;;;13.95;;
351;SDS011;164;50.784;6.496;2023-02-15T13:49:21;15.40;;;13.52;;
351;SDS011;164;50.784;6.496;2023-02-15T13:52:05;13.50;;;12.73;;
351;SDS011;164;50.784;6.496;2023-02-15T13:54:44;16.20;;;15.40;;
351;SDS011;164;50.784;6.496;2023-02-15T14:00:12;15.65;;;13.45;;
351;SDS011;164;50.784;6.496;2023-02-15T14:02:48;15.02;;;14.25;;
351;SDS011;164;50.784;6.496;2023-02-15T14:05:31;17.05;;;13.45;;
351;SDS011;164;50.784;6.496;2023-02-15T14:08:04;15.65;;;14.85;;
351;SDS011;164;50.784;6.496;2023-02-15T14:10:49;14.35;;;13.40;;
351;SDS011;164;50.784;6.496;2023-02-15T14:13:30;15.27;;;14.48;;
351;SDS011;164;50.784;6.496;2023-02-15T14:16:05;15.35;;;14.55;;
351;SDS011;164;50.784;6.496;2023-02-15T14:18:39;14.68;;;13.75;;
351;SDS011;164;50.784;6.496;2023-02-15T14:21:13;14.73;;;13.85;;
351;SDS011;164;50.784;6.496;2023-02-15T14:23:53;13.65;;;12.95;;
351;SDS011;164;50.784;6.496;2023-02-15T14:26:29;14.02;;;13.32;;
351;SDS011;164;50.784;6.496;2023-02-15T14:29:06;15.95;;;14.02;;
351;SDS011;164;50.784;6.496;2023-02-15T14:38:00;13.95;;;13.25;;
351;SDS011;164;50.784;6.496;2023-02-15T14:40:38;16.08;;;15.30;;
351;SDS011;164;50.784;6.496;2023-02-15T14:43:33;13.48;;;12.77;;
351;SDS011;164;50.784;6.496;2023-02-15T14:46:22;13.13;;;12.43;;
351;SDS011;164;50.784;6.496;2023-02-15T14:49:11;12.32;;;11.73;;
351;SDS011;164;50.784;6.496;2023-02-15T14:52:03;12.88;;;12.18;;
351;SDS011;164;50.784;6.496;2023-02-15T14:57:25;16.13;;;14.32;;
351;SDS011;164;50.784;6.496;2023-02-15T14:59:54;13.77;;;13.00;;
351;SDS011;164;50.784;6.496;2023-02-15T15:02:43;14.18;;;13.48;;
351;SDS011;164;50.784;6.496;2023-02-15T15:05:52;16.35;;;14.00;;
351;SDS011;164;50.784;6.496;2023-02-15T15:08:22;16.25;;;14.35;;
351;SDS011;164;50.784;6.496;2023-02-15T15:10:52;14.38;;;13.45;;
351;SDS011;164;50.784;6.496;2023-02-15T15:22:01;17.35;;;13.75;;
351;SDS011;164;50.784;6.496;2023-02-15T15:24:52;14.80;;;14.02;;
351;SDS011;164;50.784;6.496;2023-02-15T15:27:38;14.68;;;13.93;;
351;SDS011;164;50.784;6.496;2023-02-15T15:33:05;15.82;;;15.02;;
351;SDS011;164;50.784;6.496;2023-02-15T15:35:43;14.00;;;13.30;;
351;SDS011;164;50.784;6.496;2023-02-15T15:38:21;13.35;;;12.65;;
351;SDS011;164;50.784;6.496;2023-02-15T15:41:10;14.55;;;13.82;;
351;SDS011;164;50.784;6.496;2023-02-15T15:43:51;15.95;;;15.15;;
351;SDS011;164;50.784;6.496;2023-02-15T15:46:46;19.55;;;16.52;;
351;SDS011;164;50.784;6.496;2023-02-15T15:49:19;19.55;;;16.33;;
351;SDS011;164;50.784;6.496;2023-02-15T15:51:50;16.98;;;14.40;;
351;SDS011;164;50.784;6.496;2023-02-15T15:54:20;16.80;;;15.95;;
351;SDS011;164;50.784;6.496;2023-02-15T15:56:48;17.83;;;16.92;;
351;SDS011;164;50.784;6.496;2023-02-15T15:59:18;16.23;;;15.43;;
351;SDS011;164;50.784;6.496;2023-02-15T16:01:49;15.65;;;14.85;;
351;SDS011;164;50.784;6.496;2023-02-15T16:04:25;18.20;;;16.80;;
351;SDS011;164;50.784;6.496;2023-02-15T16:06:53;18.27;;;16.77;;
351;SDS011;164;50.784;6.496;2023-02-15T16:09:23;16.00;;;15.20;;
351;SDS011;164;50.784;6.496;2023-02-15T16:11:58;15.27;;;14.48;;
351;SDS011;164;50.784;6.496;2023-02-15T16:14:37;16.40;;;15.68;;
351;SDS011;164;50.784;6.496;2023-02-15T16:17:13;16.60;;;15.77;;
351;SDS011;164;50.784;6.496;2023-02-15T16:19:44;15.88;;;14.85;;
351;SDS011;164;50.784;6.496;2023-02-15T16:22:16;17.35;;;16.02;;
351;SDS011;164;50.784;6.496;2023-02-15T16:27:35;16.20;;;15.25;;
351;SDS011;164;50.784;6.496;2023-02-15T16:30:21;15.55;;;14.50;;
351;SDS011;164;50.784;6.496;2023-02-15T16:33:10;18.27;;;17.38;;
351;SDS011;164;50.784;6.496;2023-02-15T16:35:40;17.67;;;16.77;;
351;SDS011;164;50.784;6.496;2023-02-15T16:38:09;16.52;;;15.68;;
351;SDS011;164;50.784;6.496;2023-02-15T16:40:48;19.55;;;16.98;;
351;SDS011;164;50.784;6.496;2023-02-15T16:43:23;15.48;;;14.68;;
351;SDS011;164;50.784;6.496;2023-02-15T16:45:58;17.50;;;16.52;;
351;SDS011;164;50.784;6.496;2023-02-15T16:48:31;19.75;;;18.13;;
351;SDS011;164;50.784;6.496;2023-02-15T16:51:13;17.95;;;17.05;;
351;SDS011;164;50.784;6.496;2023-02-15T16:53:51;17.77;;;16.90;;
351;SDS011;164;50.784;6.496;2023-02-15T16:56:22;20.35;;;19.25;;